Time;durP1;ratioP1;P1;durP2;ratioP2;P2;SDS_P1;SDS_P2;PMS_P1;PMS_P2;Temp;Humidity;BMP_temperature;BMP_pressure;BME280_temperature;BME280_humidity;BME280_pressure;Samples;Min_cycle;Max_cycle;Signal;HPM_P1;HPM_P2
2022/11/13 00:01:10;;;;;;;112.45;19.38;;;;;;;2.63;100.00;99882.94;5006194;28;20040;-76
2022/11/13 00:03:35;;;;;;;55.42;17.30;;;;;;;2.45;100.00;99865.75;5008498;28;20022;-75
2022/11/13 00:06:01;;;;;;;130.95;21.52;;;;;;;2.58;100.00;99890.50;5008988;28;20430;-75
2022/11/13 00:08:26;;;;;;;58.83;17.67;;;;;;;2.26;100.00;99827.19;5008223;28;20021;-76
2022/11/13 00:10:59;;;;;;;53.83;16.83;;;;;;;2.70;100.00;99885.94;4997790;28;20034;-76
2022/11/13 00:13:24;;;;;;;77.68;15.07;;;;;;;2.56;100.00;99861.22;5009974;28;20079;-75
2022/11/13 00:15:57;;;;;;;106.60;14.05;;;;;;;2.47;100.00;99861.16;5010024;28;20030;-74
2022/11/13 00:18:22;;;;;;;88.65;15.88;;;;;;;2.49;100.00;99848.50;5004072;28;20022;-76
2022/11/13 00:20:48;;;;;;;65.75;14.35;;;;;;;2.53;100.00;99860.63;5007159;28;20040;-76
2022/11/13 00:23:13;;;;;;;57.03;13.55;;;;;;;2.49;100.00;99859.16;5007305;28;20084;-76
2022/11/13 00:25:38;;;;;;;45.25;12.38;;;;;;;2.42;100.00;99854.34;4994914;28;20484;-76
2022/11/13 00:28:04;;;;;;;93.00;13.82;;;;;;;2.45;100.00;99855.91;5006599;28;20096;-75
2022/11/13 00:30:29;;;;;;;137.23;15.60;;;;;;;2.34;100.00;99830.09;5008874;28;20025;-76
2022/11/13 00:32:54;;;;;;;33.75;12.90;;;;;;;2.58;100.00;99845.06;5009893;28;20030;-76
2022/11/13 00:35:19;;;;;;;82.68;14.30;;;;;;;2.41;100.00;99825.06;5006194;28;20464;-76
2022/11/13 00:37:45;;;;;;;42.72;12.05;;;;;;;2.35;100.00;99829.09;5013120;28;20041;-76
2022/11/13 00:40:10;;;;;;;56.17;12.30;;;;;;;2.11;100.00;99825.78;5004480;28;20184;-75
2022/11/13 00:42:36;;;;;;;56.97;15.13;;;;;;;2.28;100.00;99825.25;5007415;28;20021;-75
2022/11/13 00:45:01;;;;;;;41.50;12.88;;;;;;;2.36;100.00;99828.16;5009378;28;20040;-76
2022/11/13 00:47:26;;;;;;;70.22;15.88;;;;;;;2.51;100.00;99839.38;5007272;28;20434;-74
2022/11/13 00:49:51;;;;;;;46.92;13.32;;;;;;;2.46;100.00;99816.69;5002703;28;20783;-76
2022/11/13 00:52:17;;;;;;;60.08;12.57;;;;;;;2.40;100.00;99805.53;5007673;28;20168;-76
2022/11/13 00:54:42;;;;;;;41.65;10.50;;;;;;;2.47;100.00;99821.09;5002293;28;20033;-76
2022/11/13 00:57:07;;;;;;;46.58;10.25;;;;;;;2.66;100.00;99828.41;5005029;28;20522;-75
2022/11/13 00:59:33;;;;;;;31.40;10.55;;;;;;;2.68;100.00;99832.66;5004662;28;20169;-75
2022/11/13 01:01:58;;;;;;;55.13;10.35;;;;;;;2.57;100.00;99814.00;5013615;28;20090;-76
2022/11/13 01:04:23;;;;;;;47.63;10.65;;;;;;;2.75;100.00;99825.84;5009462;28;20018;-76
2022/11/13 01:06:49;;;;;;;46.13;11.02;;;;;;;2.52;100.00;99792.16;5010066;28;20040;-76
2022/11/13 01:09:14;;;;;;;50.00;12.48;;;;;;;2.50;100.00;99807.47;5004073;28;20030;-75
2022/11/13 01:11:40;;;;;;;66.10;12.10;;;;;;;2.57;100.00;99808.66;5016176;28;20038;-74
2022/11/13 01:14:05;;;;;;;73.05;12.70;;;;;;;2.18;100.00;99771.75;5007517;28;20022;-75
2022/11/13 01:16:31;;;;;;;48.45;14.00;;;;;;;2.37;100.00;99804.97;5008859;28;20037;-75
2022/11/13 01:18:56;;;;;;;33.88;11.02;;;;;;;2.03;100.00;99769.50;5008119;28;20053;-76
2022/11/13 01:21:24;;;;;;;72.00;13.73;;;;;;;2.01;100.00;99803.47;5005211;28;20022;-75
2022/11/13 01:23:49;;;;;;;69.80;12.90;;;;;;;1.97;100.00;99794.88;5008578;28;20030;-76
2022/11/13 01:26:27;;;;;;;28.90;12.77;;;;;;;2.01;100.00;99796.31;5008313;28;20033;-76
2022/11/13 01:28:54;;;;;;;44.03;13.13;;;;;;;2.06;100.00;99804.78;5029876;22;20045;-65
2022/11/13 01:31:22;;;;;;;25.92;12.10;;;;;;;2.11;100.00;99796.41;4965217;28;20033;-66
2022/11/13 01:33:48;;;;;;;63.30;10.15;;;;;;;2.11;100.00;99802.59;4973889;28;22001;-66
2022/11/13 01:36:20;;;;;;;100.65;13.70;;;;;;;2.12;100.00;99795.44;4950686;28;20038;-64
2022/11/13 01:38:47;;;;;;;66.10;12.85;;;;;;;2.14;100.00;99802.34;4963320;28;20038;-64
2022/11/13 01:41:24;;;;;;;78.03;12.70;;;;;;;2.00;100.00;99791.94;4952469;28;20027;-64
2022/11/13 01:43:50;;;;;;;19.60;11.18;;;;;;;2.05;100.00;99787.09;4968410;28;20030;-64
2022/11/13 01:46:28;;;;;;;25.42;11.00;;;;;;;2.12;100.00;99790.09;4952127;28;20491;-64
2022/11/13 01:49:15;;;;;;;47.10;13.30;;;;;;;2.13;100.00;99791.81;4955521;28;20506;-64
2022/11/13 01:52:00;;;;;;;40.28;12.05;;;;;;;2.16;100.00;99783.53;4947993;28;20391;-64
2022/11/13 01:54:33;;;;;;;20.75;10.10;;;;;;;2.15;100.00;99781.84;4974876;28;20033;-65
2022/11/13 01:56:59;;;;;;;16.42;9.48;;;;;;;2.12;100.00;99766.06;4961355;28;20077;-64
2022/11/13 01:59:31;;;;;;;36.05;10.35;;;;;;;2.10;100.00;99766.22;4972636;28;20050;-64
2022/11/13 02:01:57;;;;;;;16.17;9.27;;;;;;;2.17;100.00;99770.06;4976851;28;20031;-64
2022/11/13 02:04:24;;;;;;;45.65;11.65;;;;;;;2.21;100.00;99756.47;4963110;28;20077;-64
2022/11/13 02:07:06;;;;;;;19.98;10.18;;;;;;;2.28;100.00;99761.19;4966022;28;20031;-64
2022/11/13 02:09:45;;;;;;;54.13;10.63;;;;;;;2.08;100.00;99759.31;4974958;28;20023;-64
2022/11/13 02:12:13;;;;;;;24.42;9.50;;;;;;;2.16;100.00;99749.69;4949520;28;20670;-64
2022/11/13 02:14:46;;;;;;;43.00;11.20;;;;;;;2.12;100.00;99755.38;4973289;28;20031;-64
2022/11/13 02:17:19;;;;;;;60.42;10.88;;;;;;;2.12;100.00;99752.72;4952980;28;20066;-64
2022/11/13 02:19:50;;;;;;;31.40;9.70;;;;;;;2.09;100.00;99739.63;4968960;28;20553;-64
2022/11/13 02:22:27;;;;;;;38.30;10.32;;;;;;;1.96;100.00;99750.47;4965213;28;20564;-64
2022/11/13 02:24:56;;;;;;;17.92;8.93;;;;;;;1.95;100.00;99744.28;4953785;28;20058;-64
2022/11/13 02:27:42;;;;;;;18.15;9.02;;;;;;;1.93;100.00;99740.03;4954218;28;20514;-64
2022/11/13 02:30:10;;;;;;;24.10;8.50;;;;;;;2.08;100.00;99737.94;4948905;28;20033;-64
2022/11/13 02:32:44;;;;;;;31.00;10.40;;;;;;;1.99;100.00;99739.53;4956947;28;20027;-64
2022/11/13 02:35:12;;;;;;;21.17;8.07;;;;;;;2.01;100.00;99739.41;4951708;28;20034;-64
2022/11/13 02:37:38;;;;;;;21.30;8.88;;;;;;;2.07;100.00;99725.56;4956003;28;20161;-64
2022/11/13 02:40:04;;;;;;;22.70;8.00;;;;;;;1.95;100.00;99732.75;4958463;28;20018;-64
2022/11/13 02:42:29;;;;;;;16.52;7.28;;;;;;;1.81;100.00;99711.69;4973513;28;20121;-64
2022/11/13 02:44:54;;;;;;;18.48;8.55;;;;;;;1.67;100.00;99718.97;4954779;28;20768;-64
2022/11/13 02:47:20;;;;;;;22.58;7.95;;;;;;;1.64;100.00;99718.41;4962864;28;20027;-64
2022/11/13 02:49:45;;;;;;;62.95;7.55;;;;;;;1.51;100.00;99711.38;4952156;28;20066;-64
2022/11/13 02:52:11;;;;;;;17.05;8.15;;;;;;;1.39;100.00;99715.03;4948515;28;20390;-64
2022/11/13 02:54:36;;;;;;;26.55;8.55;;;;;;;1.41;100.00;99718.41;4944633;28;20034;-64
2022/11/13 02:57:01;;;;;;;26.02;8.32;;;;;;;1.34;100.00;99722.56;4964295;28;20026;-64
2022/11/13 02:59:27;;;;;;;56.42;10.15;;;;;;;1.37;100.00;99722.31;4957736;28;20113;-64
2022/11/13 03:01:52;;;;;;;39.42;9.73;;;;;;;1.48;100.00;99719.63;4967533;28;20075;-64
2022/11/13 03:04:18;;;;;;;33.85;9.10;;;;;;;1.35;100.00;99716.25;4947898;28;20035;-64
2022/11/13 03:06:43;;;;;;;27.42;9.05;;;;;;;1.35;100.00;99718.06;4950062;28;20034;-65
2022/11/13 03:09:08;;;;;;;18.95;8.13;;;;;;;1.37;100.00;99716.97;4957238;28;20513;-65
2022/11/13 03:11:34;;;;;;;18.52;7.85;;;;;;;1.38;100.00;99718.66;4955195;28;20041;-65
2022/11/13 03:13:59;;;;;;;24.27;9.15;;;;;;;1.28;100.00;99707.91;4969842;28;20511;-65
2022/11/13 03:16:24;;;;;;;33.88;8.38;;;;;;;1.12;100.00;99711.88;4943701;28;20034;-65
2022/11/13 03:18:50;;;;;;;21.95;8.00;;;;;;;1.00;100.00;99703.91;4971948;28;20031;-65
2022/11/13 03:21:15;;;;;;;15.98;8.48;;;;;;;0.86;100.00;99710.31;4968842;28;20058;-65
2022/11/13 03:23:44;;;;;;;32.10;10.85;;;;;;;0.85;100.00;99707.75;4956805;28;20026;-65
2022/11/13 03:26:11;;;;;;;24.05;8.02;;;;;;;0.85;100.00;99697.09;4956210;28;20029;-65
2022/11/13 03:28:37;;;;;;;14.73;7.70;;;;;;;0.90;100.00;99707.41;4954315;28;20030;-65
2022/11/13 03:31:03;;;;;;;19.33;8.30;;;;;;;0.99;100.00;99696.00;4972914;28;20053;-65
2022/11/13 03:33:29;;;;;;;22.98;8.25;;;;;;;1.03;100.00;99702.81;4971511;28;20549;-65
2022/11/13 03:35:54;;;;;;;16.30;8.35;;;;;;;1.04;100.00;99705.34;4962850;28;20497;-64
2022/11/13 03:38:20;;;;;;;12.50;7.57;;;;;;;1.09;100.00;99694.31;4971979;28;20121;-64
2022/11/13 03:40:46;;;;;;;17.23;7.78;;;;;;;1.02;100.00;99695.75;4970766;28;20482;-64
2022/11/13 03:43:11;;;;;;;13.93;6.32;;;;;;;1.00;100.00;99698.56;4946317;28;20414;-64
2022/11/13 03:45:36;;;;;;;21.65;7.95;;;;;;;0.93;100.00;99693.84;4964068;28;20371;-64
2022/11/13 03:48:02;;;;;;;15.80;8.05;;;;;;;0.94;100.00;99698.19;4955260;28;20431;-64
2022/11/13 03:50:27;;;;;;;10.68;6.90;;;;;;;0.99;100.00;99696.00;4965498;28;20033;-64
2022/11/13 03:52:53;;;;;;;15.45;7.28;;;;;;;0.94;100.00;99696.34;4951692;28;20034;-64
2022/11/13 03:55:19;;;;;;;12.85;7.03;;;;;;;1.00;100.00;99692.41;4963260;28;20106;-64
2022/11/13 03:57:46;;;;;;;12.25;7.63;;;;;;;0.93;100.00;99689.34;4949088;28;20026;-64
2022/11/13 04:00:12;;;;;;;15.50;7.35;;;;;;;0.91;100.00;99688.63;4966595;28;20058;-64
2022/11/13 04:02:38;;;;;;;12.68;6.25;;;;;;;0.87;100.00;99692.50;4971965;28;20430;-64
2022/11/13 04:05:04;;;;;;;16.95;6.07;;;;;;;0.93;100.00;99686.69;4956042;28;20078;-64
2022/11/13 04:07:29;;;;;;;24.50;6.80;;;;;;;0.89;100.00;99687.88;4948702;28;20031;-64
2022/11/13 04:09:54;;;;;;;13.52;6.30;;;;;;;0.93;100.00;99684.03;4960768;28;20128;-64
2022/11/13 04:12:20;;;;;;;23.98;6.60;;;;;;;0.96;100.00;99674.94;4953965;28;20034;-64
2022/11/13 04:14:45;;;;;;;14.70;6.10;;;;;;;0.85;100.00;99676.63;4951553;28;20491;-64
2022/11/13 04:17:11;;;;;;;12.98;5.50;;;;;;;0.83;100.00;99664.38;4959661;28;20030;-64
2022/11/13 04:19:36;;;;;;;7.60;5.15;;;;;;;0.75;100.00;99661.47;4952903;28;20061;-64
2022/11/13 04:22:02;;;;;;;29.35;6.38;;;;;;;0.68;100.00;99660.25;4942479;28;20110;-64
2022/11/13 04:24:28;;;;;;;21.92;7.13;;;;;;;0.68;100.00;99663.75;4954724;28;20419;-64
2022/11/13 04:26:53;;;;;;;10.13;6.00;;;;;;;0.80;100.00;99662.81;4969348;28;20081;-64
2022/11/13 04:29:19;;;;;;;25.48;6.93;;;;;;;0.77;100.00;99670.22;4952611;28;20426;-65
2022/11/13 04:31:44;;;;;;;36.85;7.20;;;;;;;0.75;100.00;99654.34;4949263;28;20122;-64
2022/11/13 04:34:10;;;;;;;10.23;6.07;;;;;;;0.79;100.00;99654.97;4961710;28;20039;-64
2022/11/13 04:36:35;;;;;;;106.97;7.93;;;;;;;0.69;100.00;99654.81;4963311;28;20038;-64
2022/11/13 04:39:01;;;;;;;38.20;7.20;;;;;;;0.63;100.00;99653.50;4972224;28;20121;-64
2022/11/13 04:44:11;;;;;;;14.80;7.18;;;;;;;0.78;100.00;99650.59;4972273;28;20402;-64
2022/11/13 04:46:36;;;;;;;28.00;6.72;;;;;;;0.85;100.00;99655.31;4960368;28;20019;-64
2022/11/13 04:49:02;;;;;;;85.72;6.97;;;;;;;0.68;100.00;99649.59;4963085;28;20446;-64
2022/11/13 04:51:27;;;;;;;56.90;7.07;;;;;;;0.40;100.00;99651.75;4954678;28;20026;-64
2022/11/13 04:53:52;;;;;;;20.02;6.30;;;;;;;0.28;100.00;99644.69;4953181;28;20030;-64
2022/11/13 04:56:18;;;;;;;39.15;7.15;;;;;;;0.28;100.00;99639.38;4949351;28;20031;-64
2022/11/13 04:58:43;;;;;;;78.72;7.88;;;;;;;0.19;100.00;99641.78;4970084;28;20030;-64
2022/11/13 05:01:09;;;;;;;70.50;7.75;;;;;;;0.22;100.00;99646.03;4962882;28;20026;-64
2022/11/13 05:03:34;;;;;;;56.30;8.45;;;;;;;0.27;100.00;99640.34;4957557;28;20056;-64
2022/11/13 05:06:02;;;;;;;94.03;8.60;;;;;;;0.22;100.00;99632.72;4977229;28;20030;-64
2022/11/13 05:08:27;;;;;;;46.17;7.35;;;;;;;0.11;100.00;99638.84;4961274;28;20490;-64
2022/11/13 05:10:53;;;;;;;20.45;6.63;;;;;;;0.26;100.00;99641.31;4974290;28;20027;-64
2022/11/13 05:13:18;;;;;;;15.68;6.15;;;;;;;0.14;100.00;99641.28;4956089;28;20022;-64
2022/11/13 05:15:44;;;;;;;72.15;8.35;;;;;;;0.14;100.00;99630.63;4955565;28;20037;-64
2022/11/13 05:18:12;;;;;;;79.35;10.20;;;;;;;0.20;100.00;99630.16;5006327;23;20052;-64
2022/11/13 05:20:38;;;;;;;140.00;17.02;;;;;;;0.08;100.00;99636.44;5027006;28;20064;-64
2022/11/13 05:23:03;;;;;;;152.95;19.50;;;;;;;0.09;100.00;99638.13;5014281;28;20033;-64
2022/11/13 05:25:29;;;;;;;86.32;12.77;;;;;;;0.12;100.00;99637.88;5008858;28;20077;-64
2022/11/13 05:27:56;;;;;;;53.33;10.05;;;;;;;0.31;100.00;99625.84;5003474;28;20026;-64
2022/11/13 05:30:22;;;;;;;42.97;10.77;;;;;;;0.41;100.00;99621.50;5025590;28;20477;-64
2022/11/13 05:32:48;;;;;;;31.77;9.30;;;;;;;0.43;100.00;99623.06;5014662;28;20065;-64
2022/11/13 05:35:13;;;;;;;19.30;6.57;;;;;;;0.49;100.00;99632.41;5030995;28;20026;-64
2022/11/13 05:37:39;;;;;;;21.83;6.20;;;;;;;0.62;100.00;99629.63;5015310;28;20504;-64
2022/11/13 05:40:05;;;;;;;32.90;6.82;;;;;;;0.64;100.00;99622.38;5007139;28;20149;-64
2022/11/13 05:42:30;;;;;;;20.48;6.25;;;;;;;0.53;100.00;99625.88;5008835;28;20034;-64
2022/11/13 05:44:56;;;;;;;70.53;7.07;;;;;;;0.35;100.00;99625.47;5010872;28;20034;-64
2022/11/13 05:47:21;;;;;;;30.30;6.07;;;;;;;0.34;100.00;99620.25;5009050;28;20088;-64
2022/11/13 05:49:46;;;;;;;92.32;8.65;;;;;;;0.17;100.00;99618.91;5023314;28;20026;-64
2022/11/13 05:52:12;;;;;;;96.65;8.82;;;;;;;-0.02;100.00;99611.50;5012190;28;20021;-64
2022/11/13 05:54:37;;;;;;;18.45;7.97;;;;;;;0.03;100.00;99619.09;5013989;28;20022;-64
2022/11/13 05:57:03;;;;;;;36.60;7.93;;;;;;;0.15;100.00;99621.69;5017090;28;20057;-64
2022/11/13 05:59:28;;;;;;;59.65;8.18;;;;;;;0.14;100.00;99611.16;5014429;28;20030;-64
2022/11/13 06:01:54;;;;;;;14.10;7.03;;;;;;;0.30;100.00;99609.03;5010951;28;20118;-64
2022/11/13 06:04:20;;;;;;;41.00;8.10;;;;;;;0.36;100.00;99607.69;5007233;28;20026;-64
2022/11/13 06:06:45;;;;;;;38.10;7.88;;;;;;;0.40;100.00;99609.16;5010167;28;20033;-64
2022/11/13 06:09:16;;;;;;;17.15;6.78;;;;;;;0.39;100.00;99602.13;5012297;28;20025;-64
2022/11/13 06:11:41;;;;;;;13.50;6.25;;;;;;;0.31;100.00;99607.19;5011601;28;20029;-65
2022/11/13 06:14:07;;;;;;;30.83;6.82;;;;;;;0.16;100.00;99604.75;5015662;28;20026;-64
2022/11/13 06:16:35;;;;;;;37.38;7.53;;;;;;;0.04;100.00;99607.50;5001876;28;20124;-64
2022/11/13 06:19:03;;;;;;;25.10;6.63;;;;;;;-0.09;100.00;99604.94;5003837;28;20150;-64
2022/11/13 06:21:31;;;;;;;135.40;10.15;;;;;;;-0.11;100.00;99602.38;5006038;28;20030;-64
2022/11/13 06:23:58;;;;;;;22.40;6.65;;;;;;;0.01;100.00;99603.28;5011557;28;20115;-65
2022/11/13 06:26:26;;;;;;;54.67;7.97;;;;;;;0.07;100.00;99602.78;5015094;28;20026;-65
2022/11/13 06:28:52;;;;;;;61.28;6.53;;;;;;;0.06;100.00;99608.25;5010369;28;20034;-65
2022/11/13 06:31:20;;;;;;;42.30;6.78;;;;;;;0.15;100.00;99612.84;5011398;28;20041;-65
2022/11/13 06:33:46;;;;;;;60.47;6.97;;;;;;;0.16;100.00;99611.91;5014343;28;20088;-64
2022/11/13 06:36:16;;;;;;;21.85;6.03;;;;;;;0.21;100.00;99604.41;5013341;28;20030;-65
2022/11/13 06:38:42;;;;;;;;;;;;;;;0.34;100.00;99605.16;5011264;28;20028;-65
2022/11/13 06:41:09;;;;;;;29.67;5.95;;;;;;;0.41;100.00;99602.88;5006394;28;19913;-65
2022/11/13 06:43:35;;;;;;;49.03;6.72;;;;;;;0.39;100.00;99602.13;5005958;28;20034;-65
2022/11/13 06:46:12;;;;;;;16.23;6.13;;;;;;;0.37;100.00;99594.28;5011659;28;20040;-65
2022/11/13 06:48:37;;;;;;;40.63;7.50;;;;;;;0.35;100.00;99595.38;5011415;28;20088;-65
2022/11/13 06:51:05;;;;;;;218.68;11.93;;;;;;;0.22;100.00;99593.63;5012669;28;20018;-65
2022/11/13 06:53:31;;;;;;;75.35;8.77;;;;;;;0.29;100.00;99577.19;5012872;28;20030;-65
2022/11/13 06:55:57;;;;;;;19.85;7.32;;;;;;;0.37;100.00;99577.47;5013756;28;20033;-65
2022/11/13 06:58:23;;;;;;;190.48;10.95;;;;;;;0.15;100.00;99581.75;5008866;28;20496;-65
2022/11/13 07:00:49;;;;;;;21.48;7.25;;;;;;;0.37;100.00;99575.66;5009165;28;20034;-64
2022/11/13 07:03:17;;;;;;;41.80;7.63;;;;;;;0.39;100.00;99571.06;5007718;28;20018;-65
2022/11/13 07:05:43;;;;;;;30.88;6.97;;;;;;;0.62;100.00;99573.72;5006629;28;20085;-65
2022/11/13 07:08:09;;;;;;;27.27;6.63;;;;;;;0.75;100.00;99565.59;5008305;28;20409;-64
2022/11/13 07:10:35;;;;;;;55.00;7.00;;;;;;;0.73;100.00;99562.22;5008525;28;20057;-65
2022/11/13 07:13:00;;;;;;;27.88;5.55;;;;;;;0.73;100.00;99560.38;5011457;28;20033;-65
2022/11/13 07:15:26;;;;;;;10.25;5.75;;;;;;;0.97;100.00;99554.06;5009511;28;20030;-65
2022/11/13 07:17:52;;;;;;;9.70;4.95;;;;;;;1.01;100.00;99553.69;5004620;28;20061;-65
2022/11/13 07:20:17;;;;;;;100.05;7.50;;;;;;;0.93;100.00;99553.47;5005352;28;20088;-65
2022/11/13 07:22:43;;;;;;;63.88;6.60;;;;;;;0.82;100.00;99550.84;5005064;28;20119;-64
2022/11/13 07:25:08;;;;;;;30.00;5.90;;;;;;;0.95;100.00;99550.69;5023702;28;20026;-64
2022/11/13 07:27:34;;;;;;;36.45;6.18;;;;;;;1.15;100.00;99549.06;5004444;28;20033;-64
2022/11/13 07:29:59;;;;;;;111.40;8.07;;;;;;;0.92;100.00;99527.81;5065411;22;20072;-77
2022/11/13 07:32:24;;;;;;;53.75;6.32;;;;;;;0.89;100.00;99525.38;4994418;28;20091;-78
2022/11/13 07:34:50;;;;;;;30.58;5.90;;;;;;;1.09;100.00;99526.44;4996752;28;20080;-76
2022/11/13 07:37:15;;;;;;;96.97;6.55;;;;;;;1.08;100.00;99528.25;4999361;28;20125;-76
2022/11/13 07:39:40;;;;;;;66.45;6.65;;;;;;;1.03;100.00;99500.28;4987349;28;20121;-76
2022/11/13 07:42:06;;;;;;;29.88;5.47;;;;;;;1.23;100.00;99506.63;4978434;28;20043;-77
2022/11/13 07:44:31;;;;;;;16.40;5.70;;;;;;;1.34;100.00;99516.41;4978154;28;20038;-72
2022/11/13 07:46:56;;;;;;;28.63;5.00;;;;;;;1.38;100.00;99517.84;4988248;28;20035;-75
2022/11/13 07:49:21;;;;;;;25.38;4.43;;;;;;;1.08;100.00;99482.97;4970534;28;20038;-75
2022/11/13 07:51:47;;;;;;;41.08;4.32;;;;;;;0.92;100.00;99476.31;4970665;28;20034;-76
2022/11/13 07:54:12;;;;;;;30.63;4.65;;;;;;;1.18;100.00;99482.19;4985853;28;20022;-76
2022/11/13 07:56:37;;;;;;;143.60;7.15;;;;;;;1.29;100.00;99474.16;4968925;28;20473;-74
2022/11/13 07:59:03;;;;;;;35.33;4.55;;;;;;;1.69;100.00;99489.47;4969644;28;20027;-75
2022/11/13 08:01:28;;;;;;;31.90;5.55;;;;;;;1.67;100.00;99478.09;4965755;28;20031;-74
2022/11/13 08:03:53;;;;;;;32.05;5.00;;;;;;;1.57;100.00;99453.16;4985038;28;20098;-78
2022/11/13 08:06:18;;;;;;;18.00;4.72;;;;;;;1.96;100.00;99487.13;4987259;28;20118;-75
2022/11/13 08:08:46;;;;;;;15.73;4.40;;;;;;;1.71;100.00;99463.53;4976572;28;20042;-77
2022/11/13 08:11:12;;;;;;;22.83;4.53;;;;;;;1.42;100.00;99437.50;4981968;28;20090;-78
2022/11/13 08:13:37;;;;;;;10.68;4.20;;;;;;;2.04;100.00;99469.59;4976986;28;20046;-76
2022/11/13 08:16:03;;;;;;;11.73;4.95;;;;;;;2.05;100.00;99412.59;4999245;28;20073;-78
2022/11/13 08:18:30;;;;;;;7.22;4.53;;;;;;;2.40;100.00;99444.19;4979891;28;20026;-74
2022/11/13 08:20:55;;;;;;;22.80;4.70;;;;;;;2.77;100.00;99468.47;4970995;28;20038;-76
2022/11/13 08:23:21;;;;;;;70.80;5.50;;;;;;;2.55;100.00;99463.34;4970207;28;20018;-76
2022/11/13 08:25:46;;;;;;;29.98;5.80;;;;;;;2.66;100.00;99443.69;4973790;28;20023;-77
2022/11/13 08:28:12;;;;;;;35.22;6.25;;;;;;;2.79;100.00;99466.50;4968035;28;20023;-78
2022/11/13 08:30:38;;;;;;;26.20;5.85;;;;;;;2.90;100.00;99456.69;4966878;28;20027;-77
2022/11/13 08:33:03;;;;;;;178.63;11.98;;;;;;;2.58;100.00;99460.41;4971389;28;20484;-74
2022/11/13 08:35:29;;;;;;;135.05;8.68;;;;;;;2.19;100.00;99426.41;4975175;28;20027;-76
2022/11/13 08:38:01;;;;;;;143.43;9.05;;;;;;;2.73;100.00;99439.50;4979691;28;20500;-76
2022/11/13 08:40:26;;;;;;;74.03;7.38;;;;;;;2.87;100.00;99416.88;4974686;28;20050;-81
2022/11/13 08:42:52;;;;;;;51.35;12.85;;;;;;;2.84;100.00;99413.50;4992206;28;20397;-81
2022/11/13 08:45:17;;;;;;;14.85;6.82;;;;;;;3.26;100.00;99404.34;4991532;28;20153;-80
2022/11/13 08:47:42;;;;;;;14.90;6.43;;;;;;;3.60;100.00;99401.22;4983779;28;20098;-82
2022/11/13 08:50:08;;;;;;;18.80;6.75;;;;;;;3.76;100.00;99425.53;4979020;28;20034;-83
2022/11/13 08:52:33;;;;;;;40.63;7.20;;;;;;;3.66;100.00;99417.53;4993066;28;20097;-80
2022/11/13 08:54:59;;;;;;;23.13;6.90;;;;;;;4.01;100.00;99412.50;4976305;28;20477;-80
2022/11/13 08:57:24;;;;;;;22.63;5.30;;;;;;;4.33;100.00;99407.56;4978510;28;20026;-78
2022/11/13 08:59:49;;;;;;;9.35;5.28;;;;;;;5.46;100.00;99419.63;4969019;28;20029;-84
2022/11/13 09:02:15;;;;;;;32.72;5.80;;;;;;;5.60;100.00;99420.06;4967930;28;20117;-78
2022/11/13 09:04:41;;;;;;;13.32;5.35;;;;;;;6.11;100.00;99395.06;4986055;28;20116;-84
2022/11/13 09:07:06;;;;;;;6.65;4.70;;;;;;;6.85;100.00;99375.69;4967250;28;20026;-78
2022/11/13 09:09:33;;;;;;;7.53;5.00;;;;;;;6.02;100.00;99398.72;4986456;28;20515;-77
2022/11/13 09:11:59;;;;;;;11.30;5.97;;;;;;;5.56;100.00;99379.28;4987479;28;20041;-80
2022/11/13 09:14:24;;;;;;;8.32;5.78;;;;;;;5.41;100.00;99405.81;4977986;28;20580;-79
2022/11/13 09:16:51;;;;;;;13.35;7.25;;;;;;;5.45;100.00;99380.38;4971931;28;20085;-79
2022/11/13 09:19:16;;;;;;;10.68;6.20;;;;;;;6.02;100.00;99365.63;4967443;28;20058;-77
2022/11/13 09:21:41;;;;;;;10.25;6.05;;;;;;;6.60;100.00;99394.41;4965891;28;20041;-76
2022/11/13 09:24:07;;;;;;;21.40;7.05;;;;;;;6.21;100.00;99405.72;4972189;28;20053;-78
2022/11/13 09:26:34;;;;;;;41.97;6.20;;;;;;;6.46;100.00;99401.28;4971195;28;20623;-78
2022/11/13 09:28:59;;;;;;;10.13;4.97;;;;;;;6.64;100.00;99394.94;4965525;28;20448;-79
2022/11/13 09:31:25;;;;;;;10.68;5.75;;;;;;;6.76;100.00;99381.03;4981326;28;20026;-79
2022/11/13 09:33:50;;;;;;;9.25;4.60;;;;;;;6.42;100.00;99399.06;4971484;28;20846;-79
2022/11/13 09:36:16;;;;;;;6.35;4.13;;;;;;;6.28;100.00;99393.28;4990305;28;20084;-78
2022/11/13 09:38:42;;;;;;;66.50;6.60;;;;;;;6.00;100.00;99399.88;4974871;28;20113;-79
2022/11/13 09:41:11;;;;;;;12.73;6.07;;;;;;;7.04;100.00;99386.13;4975604;28;20063;-79
2022/11/13 09:43:42;;;;;;;7.38;4.57;;;;;;;7.98;100.00;99383.88;4972099;28;20023;-78
2022/11/13 09:46:20;;;;;;;8.23;4.78;;;;;;;8.38;100.00;99373.97;4968465;28;20031;-77
2022/11/13 09:48:54;;;;;;;8.55;4.72;;;;;;;8.67;100.00;99389.53;4970503;28;20042;-79
2022/11/13 09:51:24;;;;;;;6.60;4.53;;;;;;;8.32;100.00;99388.97;4969957;28;20034;-77
2022/11/13 09:53:50;;;;;;;7.82;4.43;;;;;;;10.05;100.00;99384.03;4981763;28;20616;-79
2022/11/13 09:57:06;;;;;;;14.30;4.15;;;;;;;10.33;100.00;99386.97;4968824;28;20141;-82
2022/11/13 09:59:55;;;;;;;8.73;4.22;;;;;;;10.40;100.00;99387.03;4967042;28;20034;-80
2022/11/13 10:03:05;;;;;;;8.90;4.53;;;;;;;11.22;100.00;99366.97;4971020;28;20058;-80
2022/11/13 10:05:52;;;;;;;8.63;4.85;;;;;;;11.19;100.00;99371.72;4924149;29;20050;-77
2022/11/13 10:08:28;;;;;;;9.07;4.40;;;;;;;10.05;100.00;99360.53;4935426;29;20031;-76
2022/11/13 10:11:31;;;;;;;6.18;4.18;;;;;;;10.68;100.00;99366.38;4957341;28;20067;-76
2022/11/13 10:14:49;;;;;;;6.70;4.80;;;;;;;10.17;100.00;99360.09;4955803;28;20047;-77
2022/11/13 10:17:23;;;;;;;8.52;4.97;;;;;;;10.03;100.00;99357.19;4977115;28;20031;-77
2022/11/13 10:19:56;;;;;;;7.80;4.82;;;;;;;10.75;100.00;99344.81;4978745;28;20023;-79
2022/11/13 10:22:34;;;;;;;8.48;4.88;;;;;;;10.36;100.00;99353.28;4977238;28;20094;-83
2022/11/13 10:25:19;;;;;;;8.00;5.32;;;;;;;10.47;100.00;99350.09;4991340;28;20030;-81
2022/11/13 10:27:53;;;;;;;8.43;4.88;;;;;;;10.62;100.00;99350.06;4982267;28;20706;-79
2022/11/13 10:30:18;;;;;;;8.18;5.40;;;;;;;10.18;100.00;99337.41;4971691;28;20035;-77
2022/11/13 10:32:46;;;;;;;10.05;5.80;;;;;;;8.53;100.00;99359.59;4983148;28;20027;-79
2022/11/13 10:35:27;;;;;;;11.43;6.05;;;;;;;8.96;100.00;99338.44;4978831;28;20050;-82
2022/11/13 10:38:03;;;;;;;10.40;5.93;;;;;;;9.53;100.00;99339.78;4976927;28;20505;-73
2022/11/13 10:40:35;;;;;;;8.20;5.80;;;;;;;8.73;100.00;99318.69;4972719;28;20560;-74
2022/11/13 10:43:16;;;;;;;13.48;6.45;;;;;;;7.94;100.00;99334.88;4974980;28;20026;-73
2022/11/13 10:46:04;;;;;;;15.82;6.65;;;;;;;7.44;100.00;99335.97;4973890;28;20385;-74
2022/11/13 10:48:35;;;;;;;16.27;6.78;;;;;;;7.49;100.00;99330.94;4966918;28;20109;-74
2022/11/13 10:51:04;;;;;;;21.20;7.90;;;;;;;7.52;100.00;99337.81;4973840;28;20039;-73
2022/11/13 10:53:39;;;;;;;11.50;7.22;;;;;;;7.35;100.00;99328.94;4971793;28;20031;-73
2022/11/13 10:56:28;;;;;;;11.45;7.30;;;;;;;7.36;100.00;99331.47;4962620;28;20030;-74
2022/11/13 10:59:16;;;;;;;16.67;7.10;;;;;;;6.83;100.00;99327.41;4969260;28;20026;-74
2022/11/13 11:01:44;;;;;;;17.48;8.02;;;;;;;6.74;100.00;99313.13;4970892;28;20453;-75
2022/11/13 11:04:20;;;;;;;12.57;8.25;;;;;;;6.73;100.00;99311.47;4984924;28;20481;-74
2022/11/13 11:06:46;;;;;;;11.02;7.55;;;;;;;6.95;100.00;99299.19;4969915;28;20035;-76
2022/11/13 11:09:25;;;;;;;13.68;8.00;;;;;;;7.44;100.00;99298.28;4971115;28;20023;-74
2022/11/13 11:12:19;;;;;;;10.38;7.75;;;;;;;7.49;100.00;99298.63;4966794;28;20512;-73
2022/11/13 11:15:03;;;;;;;11.25;8.15;;;;;;;8.55;100.00;99295.53;4979145;28;20038;-72
2022/11/13 11:17:52;;;;;;;12.48;7.45;;;;;;;9.05;100.00;99292.47;4970498;28;20395;-72
2022/11/13 11:20:20;;;;;;;11.35;7.45;;;;;;;8.95;100.00;99269.28;4966831;28;20038;-73
2022/11/13 11:22:51;;;;;;;10.02;7.18;;;;;;;9.65;100.00;99259.16;4968489;28;20086;-73
2022/11/13 11:25:30;;;;;;;11.73;7.60;;;;;;;10.23;100.00;99241.19;4967564;28;20089;-73
2022/11/13 11:28:04;;;;;;;10.60;7.60;;;;;;;10.27;100.00;99223.59;4968608;28;20069;-73
2022/11/13 11:30:44;;;;;;;10.25;7.05;;;;;;;10.60;100.00;99236.59;4963891;28;20027;-73
2022/11/13 11:33:36;;;;;;;11.82;8.23;;;;;;;10.38;100.00;99240.34;4979509;28;20023;-73